Time;durP1;ratioP1;P1;durP2;ratioP2;P2;SDS_P1;SDS_P2;PMS_P1;PMS_P2;Temp;Humidity;BMP_temperature;BMP_pressure;BME280_temperature;BME280_humidity;BME280_pressure;Samples;Min_cycle;Max_cycle;Signal;HPM_P1;HPM_P2
2021/12/12 00:01:42;;;;;;;19.83;12.97;;;-4.20;99.90;-4.70;101197.00;;;;5017071;27;87701;-65
2021/12/12 00:04:14;;;;;;;21.23;13.07;;;-4.10;99.90;-4.60;101204.00;;;;5015834;27;89184;-65
2021/12/12 00:06:50;;;;;;;28.30;12.60;;;-4.00;99.90;-4.50;101205.00;;;;5015348;27;87833;-65
2021/12/12 00:09:28;;;;;;;20.10;12.60;;;-4.00;99.90;-4.50;101210.00;;;;5015922;27;98899;-65
2021/12/12 00:11:54;;;;;;;22.80;13.83;;;-4.00;99.90;-4.50;101205.00;;;;5015978;27;98368;-65
2021/12/12 00:14:25;;;;;;;20.00;14.23;;;-4.00;99.90;-4.50;101207.00;;;;5016680;27;97443;-66
2021/12/12 00:16:53;;;;;;;18.30;13.03;;;-4.00;99.90;-4.50;101207.00;;;;5015446;27;105948;-67
2021/12/12 00:19:21;;;;;;;23.37;13.43;;;-4.10;99.90;-4.50;101217.00;;;;5014619;27;87732;-65
2021/12/12 00:21:51;;;;;;;25.43;14.27;;;-4.00;99.90;-4.60;101207.00;;;;5016914;27;87038;-66
2021/12/12 00:24:18;;;;;;;16.23;13.57;;;-4.00;99.90;-4.60;101210.00;;;;5015949;27;103564;-66
2021/12/12 00:26:48;;;;;;;21.47;13.53;;;-4.10;99.90;-4.60;101209.00;;;;5031028;27;88212;-65
2021/12/12 00:29:16;;;;;;;25.83;12.83;;;-4.20;99.90;-4.70;101206.00;;;;5036582;27;88794;-65
2021/12/12 00:31:44;;;;;;;24.20;13.73;;;-4.10;99.90;-4.70;101200.00;;;;5036427;27;87965;-65
2021/12/12 00:34:10;;;;;;;27.60;14.93;;;-4.20;99.90;-4.70;101211.00;;;;5033965;27;89260;-65
2021/12/12 00:36:40;;;;;;;21.37;13.07;;;-4.10;99.90;-4.80;101213.00;;;;5033350;27;88699;-65
2021/12/12 00:39:16;;;;;;;23.80;13.40;;;-4.30;99.90;-4.80;101220.00;;;;5016506;27;87799;-66
2021/12/12 00:42:01;;;;;;;19.40;14.17;;;-4.20;99.90;-4.90;101206.00;;;;5032897;27;93741;-65
2021/12/12 00:44:28;;;;;;;25.77;15.23;;;-4.30;99.90;-4.90;101207.00;;;;5033823;27;91727;-65
2021/12/12 00:47:02;;;;;;;21.20;15.60;;;-4.40;99.90;-4.90;101207.00;;;;5033043;27;103617;-65
2021/12/12 00:49:30;;;;;;;20.53;14.00;;;-4.40;99.90;-4.90;101198.00;;;;5036343;27;90948;-66
2021/12/12 00:51:57;;;;;;;20.67;15.20;;;-4.50;99.90;-4.90;101205.00;;;;5026561;27;87567;-66
2021/12/12 00:54:30;;;;;;;21.80;14.40;;;-4.40;99.90;-4.90;101203.00;;;;5030050;27;89239;-66
2021/12/12 00:56:59;;;;;;;28.27;14.87;;;-4.30;99.90;-4.90;101196.00;;;;5035896;27;89768;-66
2021/12/12 00:59:25;;;;;;;29.63;14.30;;;-4.40;99.90;-4.90;101196.00;;;;5036063;27;87967;-66
2021/12/12 01:01:53;;;;;;;23.73;15.20;;;-4.40;99.90;-4.80;101201.00;;;;5035878;27;87905;-66
2021/12/12 01:04:25;;;;;;;20.10;14.50;;;-3.40;99.90;-4.80;101213.00;;;;5035574;27;107620;-65
2021/12/12 01:06:54;;;;;;;22.47;13.53;;;-4.20;99.90;-4.70;101206.00;;;;5036130;27;87815;-65
2021/12/12 01:09:27;;;;;;;18.23;13.53;;;-4.30;99.90;-4.70;101214.00;;;;5035502;27;95541;-66
2021/12/12 01:11:57;;;;;;;19.43;12.20;;;-4.20;99.90;-4.70;101221.00;;;;5036266;27;88876;-66
2021/12/12 01:14:30;;;;;;;19.37;13.87;;;-4.20;99.90;-4.60;101211.00;;;;5035456;27;88428;-66
2021/12/12 01:17:04;;;;;;;22.27;13.70;;;-4.10;99.90;-4.60;101215.00;;;;5039818;27;88729;-66
2021/12/12 01:19:38;;;;;;;28.00;14.63;;;-4.20;99.90;-4.60;101235.00;;;;5029306;27;88921;-66
2021/12/12 01:22:15;;;;;;;23.37;14.57;;;-4.10;99.90;-4.60;101254.00;;;;5015855;27;87721;-66
2021/12/12 01:24:47;;;;;;;25.90;14.57;;;-4.10;99.90;-4.60;101250.00;;;;5015675;27;88544;-66
2021/12/12 01:27:14;;;;;;;20.30;13.10;;;-3.20;99.90;-4.60;101246.00;;;;5015598;27;87686;-66
2021/12/12 01:29:40;;;;;;;16.20;10.47;;;-4.10;99.90;-4.60;101245.00;;;;5012972;27;87857;-66
2021/12/12 01:32:17;;;;;;;15.03;12.60;;;-4.10;99.90;-4.60;101254.00;;;;5020061;27;94757;-66
2021/12/12 01:34:43;;;;;;;19.30;12.30;;;-4.10;99.90;-4.60;101253.00;;;;5033234;27;87962;-65
2021/12/12 01:39:57;;;;;;;23.63;13.60;;;-4.10;99.90;-4.60;101264.00;;;;5014951;27;87697;-66
2021/12/12 01:42:32;;;;;;;16.47;12.17;;;-4.10;99.90;-4.60;101269.00;;;;5035729;27;87960;-66
2021/12/12 01:45:18;;;;;;;23.47;13.87;;;-2.80;99.90;-4.50;101261.00;;;;5032492;27;91026;-66
2021/12/12 01:48:03;;;;;;;22.40;13.00;;;-4.00;99.90;-4.50;101266.00;;;;5033561;27;89242;-66
2021/12/12 01:50:42;;;;;;;22.33;14.40;;;-4.00;99.90;-4.50;101242.00;;;;5032604;27;99555;-66
2021/12/12 01:53:13;;;;;;;14.33;10.53;;;-3.90;99.90;-4.60;101249.00;;;;5035698;27;87854;-66
2021/12/12 01:55:55;;;;;;;18.10;12.70;;;-4.00;99.90;-4.60;101244.00;;;;5027304;27;99566;-66
2021/12/12 01:58:26;;;;;;;15.70;11.23;;;-4.00;99.90;-4.60;101252.00;;;;5015387;27;88297;-66
2021/12/12 02:01:08;;;;;;;18.43;10.23;;;-4.20;99.90;-4.60;101260.00;;;;5014694;27;88339;-66
2021/12/12 02:03:39;;;;;;;20.20;12.43;;;-4.10;99.90;-4.70;101248.00;;;;5015553;27;87271;-66
2021/12/12 02:06:11;;;;;;;24.60;12.87;;;-4.00;99.90;-4.70;101254.00;;;;5016426;27;87806;-67
2021/12/12 02:08:39;;;;;;;18.50;11.53;;;-4.10;99.90;-4.70;101248.00;;;;5012810;27;88430;-66
2021/12/12 02:11:09;;;;;;;20.30;12.47;;;-4.20;99.90;-4.70;101247.00;;;;5014306;27;88877;-67
2021/12/12 02:13:44;;;;;;;14.23;10.33;;;-4.10;99.90;-4.70;101263.00;;;;5013007;27;87872;-66
2021/12/12 02:16:10;;;;;;;16.87;12.10;;;-4.20;99.90;-4.70;101237.00;;;;5024977;27;103264;-66
2021/12/12 02:18:40;;;;;;;14.90;10.90;;;-4.10;99.90;-4.60;101250.00;;;;5034492;27;89051;-67
2021/12/12 02:21:25;;;;;;;14.60;12.27;;;-4.00;99.90;-4.60;101260.00;;;;5034243;27;88092;-67
2021/12/12 02:37:25;;;;;;;19.67;12.67;;;-4.00;99.90;-4.40;101247.00;;;;5031411;27;88787;-66
2021/12/12 02:39:51;;;;;;;13.67;10.70;;;-3.90;99.90;-4.40;101244.00;;;;5034679;27;95021;-66
2021/12/12 02:42:21;;;;;;;16.93;10.37;;;-4.00;99.90;-4.30;101234.00;;;;5031401;27;96338;-66
2021/12/12 02:44:50;;;;;;;20.17;11.33;;;-3.90;99.90;-4.30;101240.00;;;;5026409;27;87619;-66
2021/12/12 02:47:20;;;;;;;17.53;11.37;;;-3.70;99.90;-4.20;101234.00;;;;5034204;27;88737;-65
2021/12/12 02:52:21;;;;;;;13.67;10.93;;;-3.70;99.90;-4.10;101236.00;;;;5036066;27;87815;-66
2021/12/12 02:54:47;;;;;;;16.33;11.30;;;-3.60;99.90;-4.00;101234.00;;;;5038275;27;97051;-66
2021/12/12 02:57:17;;;;;;;15.33;11.03;;;-3.70;99.90;-4.00;101243.00;;;;5038243;27;88829;-66
2021/12/12 02:59:48;;;;;;;15.47;10.63;;;-3.40;99.90;-3.90;101240.00;;;;5037665;27;88560;-66
2021/12/12 03:02:21;;;;;;;18.33;11.67;;;-3.50;99.90;-3.90;101259.00;;;;5026651;27;88551;-66
2021/12/12 03:04:48;;;;;;;17.00;10.90;;;-3.50;99.90;-3.90;101253.00;;;;5017755;27;87939;-67
2021/12/12 03:07:14;;;;;;;18.20;11.07;;;-3.40;99.90;-3.90;101259.00;;;;5028228;27;89108;-67
2021/12/12 03:09:50;;;;;;;15.50;10.63;;;-3.40;99.90;-3.80;101268.00;;;;5037828;27;88076;-67
2021/12/12 03:12:31;;;;;;;15.37;9.77;;;-3.40;99.90;-3.90;101265.00;;;;5019358;27;87934;-66
2021/12/12 03:15:01;;;;;;;20.53;11.10;;;-3.40;99.90;-3.90;101277.00;;;;4999585;27;87828;-66
2021/12/12 03:17:27;;;;;;;18.60;10.83;;;-3.40;99.90;-3.90;101266.00;;;;5037490;27;101034;-66
2021/12/12 03:20:01;;;;;;;14.80;9.40;;;-3.50;99.90;-3.90;101273.00;;;;5037445;27;86906;-66
2021/12/12 03:22:27;;;;;;;14.73;10.07;;;-3.40;99.90;-3.90;101253.00;;;;5035324;27;87859;-66
2021/12/12 03:24:55;;;;;;;13.80;8.97;;;-3.40;99.90;-3.80;101280.00;;;;5037066;27;88885;-67
2021/12/12 03:27:21;;;;;;;13.93;10.57;;;-3.40;99.90;-3.80;101268.00;;;;5025311;27;106200;-66
2021/12/12 03:29:49;;;;;;;12.40;9.90;;;-3.40;99.90;-3.80;101278.00;;;;5016475;27;103247;-66
2021/12/12 03:32:21;;;;;;;14.17;9.87;;;-2.40;99.90;-3.80;101272.00;;;;5017965;27;87809;-67
2021/12/12 03:34:53;;;;;;;14.07;9.47;;;-3.30;99.90;-3.80;101264.00;;;;5018024;27;87850;-66
2021/12/12 03:37:23;;;;;;;20.43;11.27;;;-3.30;99.90;-3.70;101281.00;;;;5015803;27;87948;-67
2021/12/12 03:39:53;;;;;;;14.97;11.63;;;-3.20;99.90;-3.60;101282.00;;;;5017175;27;87678;-67
2021/12/12 03:42:24;;;;;;;15.10;10.23;;;-3.10;99.90;-3.60;101274.00;;;;5018638;27;88331;-67
2021/12/12 03:44:51;;;;;;;17.60;11.60;;;-3.20;99.90;-3.50;101287.00;;;;5018597;27;87019;-67
2021/12/12 03:47:38;;;;;;;14.73;8.63;;;-3.10;99.90;-3.50;101271.00;;;;5017580;27;88225;-67
2021/12/12 03:50:20;;;;;;;17.50;10.30;;;-3.20;99.90;-3.50;101273.00;;;;5017489;27;87907;-66
2021/12/12 03:52:46;;;;;;;20.37;12.00;;;-3.10;99.90;-3.50;101281.00;;;;5027871;27;88702;-67
2021/12/12 03:55:14;;;;;;;22.57;9.17;;;-3.00;99.90;-3.40;101281.00;;;;5015090;27;87753;-67
2021/12/12 03:57:40;;;;;;;23.17;11.67;;;-3.10;99.90;-3.40;101278.00;;;;5017223;27;103654;-66
2021/12/12 04:00:14;;;;;;;11.80;9.93;;;-2.90;99.90;-3.40;101286.00;;;;5014536;27;89783;-66
2021/12/12 04:02:40;;;;;;;12.90;9.50;;;-2.90;99.90;-3.40;101289.00;;;;5028090;27;87947;-67
2021/12/12 04:05:07;;;;;;;20.13;11.53;;;-2.90;99.90;-3.40;101286.00;;;;5017881;27;109766;-67
2021/12/12 04:07:33;;;;;;;18.67;10.27;;;-3.10;99.90;-3.40;101290.00;;;;5021949;27;87820;-66
2021/12/12 04:09:59;;;;;;;17.50;10.70;;;-2.90;99.90;-3.40;101299.00;;;;5036971;27;88648;-67
2021/12/12 04:12:26;;;;;;;16.77;10.27;;;-2.90;99.90;-3.40;101292.00;;;;5016783;27;88766;-67
2021/12/12 04:14:55;;;;;;;15.07;9.33;;;-3.00;99.90;-3.40;101299.00;;;;5016686;27;95953;-67
2021/12/12 04:17:26;;;;;;;16.07;9.50;;;-2.90;99.90;-3.50;101297.00;;;;5017561;27;92791;-66
2021/12/12 04:19:57;;;;;;;13.97;10.77;;;-2.90;99.90;-3.50;101306.00;;;;5016855;27;104437;-67
2021/12/12 04:22:24;;;;;;;18.40;10.43;;;-2.90;99.90;-3.50;101302.00;;;;5015840;27;97924;-66
2021/12/12 04:24:54;;;;;;;17.37;10.27;;;-3.00;99.90;-3.50;101301.00;;;;5028352;27;87676;-67
2021/12/12 04:27:22;;;;;;;14.77;10.17;;;-3.10;99.90;-3.50;101297.00;;;;5035856;27;88314;-67
2021/12/12 04:29:51;;;;;;;17.30;11.63;;;-3.00;99.90;-3.50;101297.00;;;;5034770;27;94574;-67
2021/12/12 04:32:22;;;;;;;13.47;8.87;;;-3.10;99.90;-3.50;101307.00;;;;5023594;27;87680;-67
2021/12/12 04:34:57;;;;;;;18.03;8.77;;;-3.10;99.90;-3.50;101309.00;;;;5017475;27;91718;-67
2021/12/12 04:37:25;;;;;;;15.53;9.33;;;-3.00;99.90;-3.50;101307.00;;;;5015843;27;88945;-67
2021/12/12 04:39:55;;;;;;;13.70;8.60;;;-3.00;99.90;-3.60;101307.00;;;;5028686;27;88108;-67
2021/12/12 04:42:27;;;;;;;14.50;8.87;;;-3.10;99.90;-3.60;101301.00;;;;5036545;27;89037;-67
2021/12/12 04:45:09;;;;;;;13.83;10.53;;;-3.10;99.90;-3.60;101306.00;;;;5018211;27;88045;-68
2021/12/12 04:50:42;;;;;;;11.57;9.20;;;-3.00;99.90;-3.60;101311.00;;;;5033351;27;87829;-66
2021/12/12 04:53:17;;;;;;;14.03;8.73;;;-3.10;99.90;-3.50;101311.00;;;;5021141;27;88012;-66
2021/12/12 04:56:16;;;;;;;15.20;10.53;;;-3.00;99.90;-3.40;101319.00;;;;5015986;27;91264;-67
2021/12/12 04:59:21;;;;;;;15.67;9.83;;;-3.00;99.90;-3.30;101316.00;;;;5012962;27;108035;-66
2021/12/12 05:02:22;;;;;;;16.63;10.87;;;-2.90;99.90;-3.00;101326.00;;;;5016833;27;87395;-66
2021/12/12 05:05:07;;;;;;;16.00;11.90;;;-2.80;99.90;-2.80;101325.00;;;;5013013;27;88034;-65
2021/12/12 05:07:44;;;;;;;19.80;10.83;;;-2.40;99.90;-2.60;101326.00;;;;5025548;27;87918;-66
2021/12/12 05:10:32;;;;;;;17.53;11.83;;;-2.30;99.90;-2.50;101327.00;;;;5033045;27;94666;-66
2021/12/12 05:13:07;;;;;;;20.57;11.57;;;-2.10;99.90;-2.30;101330.00;;;;5032451;27;103338;-66
2021/12/12 05:16:13;;;;;;;19.23;12.80;;;-2.00;99.90;-2.00;101340.00;;;;5033681;27;87839;-66
2021/12/12 05:18:50;;;;;;;15.80;11.60;;;-1.70;99.90;-1.90;101335.00;;;;4955049;28;87941;-67
2021/12/12 05:21:29;;;;;;;23.27;12.30;;;-1.60;99.90;-1.80;101344.00;;;;5013148;27;88630;-66
2021/12/12 05:24:05;;;;;;;18.47;13.80;;;-1.50;99.90;-1.60;101350.00;;;;5014113;27;87819;-66
2021/12/12 05:26:44;;;;;;;27.90;15.20;;;-1.40;99.90;-1.50;101357.00;;;;5018967;27;88073;-66
2021/12/12 05:29:28;;;;;;;26.27;14.23;;;-1.20;99.90;-1.40;101361.00;;;;5027703;27;87140;-66
2021/12/12 05:31:57;;;;;;;23.80;14.27;;;-1.10;99.90;-1.40;101365.00;;;;5013197;27;88128;-66
2021/12/12 05:34:35;;;;;;;21.00;13.33;;;-1.10;99.90;-1.40;101351.00;;;;5013138;27;88666;-66
2021/12/12 05:37:03;;;;;;;18.93;12.17;;;-1.00;99.90;-1.40;101355.00;;;;5014251;27;88637;-66
2021/12/12 05:39:29;;;;;;;27.13;13.60;;;-1.00;99.90;-1.40;101355.00;;;;5014676;27;87768;-66
2021/12/12 05:41:57;;;;;;;23.03;12.20;;;-1.00;99.90;-1.50;101359.00;;;;5012795;27;88951;-65
2021/12/12 05:44:25;;;;;;;22.37;11.90;;;-1.10;99.90;-1.50;101357.00;;;;5013715;27;88140;-65
2021/12/12 05:47:01;;;;;;;17.40;11.27;;;-0.10;99.90;-1.60;101364.00;;;;5017247;27;87738;-67
2021/12/12 05:49:28;;;;;;;24.93;13.63;;;-0.40;99.90;-1.60;101348.00;;;;5018498;27;94859;-68
2021/12/12 05:51:54;;;;;;;22.07;12.00;;;-1.10;99.90;-1.60;101348.00;;;;5032890;27;88623;-66
2021/12/12 05:54:25;;;;;;;20.53;13.23;;;-1.20;99.90;-1.60;101365.00;;;;5036149;27;88029;-67
2021/12/12 05:56:51;;;;;;;18.57;12.23;;;-1.20;99.90;-1.60;101352.00;;;;5032867;27;95710;-67
2021/12/12 05:59:17;;;;;;;21.13;12.50;;;-1.20;99.90;-1.60;101356.00;;;;5036154;27;87943;-67
2021/12/12 06:01:43;;;;;;;21.80;10.63;;;-1.20;99.90;-1.60;101357.00;;;;5031002;27;118137;-66
2021/12/12 06:04:10;;;;;;;19.20;11.73;;;-1.20;99.90;-1.60;101356.00;;;;5034237;27;115553;-66
2021/12/12 06:06:43;;;;;;;18.43;11.03;;;-1.20;99.90;-1.70;101352.00;;;;5033722;27;88248;-67
2021/12/12 06:09:12;;;;;;;33.03;18.83;;;-0.20;99.90;-1.70;101365.00;;;;5035154;27;87860;-67
2021/12/12 06:11:43;;;;;;;24.60;15.60;;;-0.30;99.90;-1.70;101365.00;;;;5034098;27;89175;-66
2021/12/12 06:14:09;;;;;;;20.83;13.83;;;-1.30;99.90;-1.70;101373.00;;;;5033976;27;102840;-66
2021/12/12 06:16:37;;;;;;;20.13;12.70;;;-1.40;99.90;-1.70;101358.00;;;;5023108;27;87974;-68
2021/12/12 06:19:12;;;;;;;20.40;11.97;;;-1.40;99.90;-1.80;101366.00;;;;5013330;27;87149;-66
2021/12/12 06:21:38;;;;;;;19.27;11.30;;;-1.40;99.90;-1.90;101358.00;;;;5012523;27;88381;-68
2021/12/12 06:24:05;;;;;;;16.13;10.23;;;-1.40;99.90;-1.90;101372.00;;;;5013292;27;88834;-66
2021/12/12 06:26:31;;;;;;;16.73;11.00;;;-1.50;99.90;-2.00;101357.00;;;;5015380;27;99785;-67
2021/12/12 06:28:56;;;;;;;18.57;12.47;;;-1.60;99.90;-2.00;101370.00;;;;5018692;27;87493;-66
2021/12/12 06:31:23;;;;;;;21.50;14.57;;;-1.50;99.90;-2.00;101368.00;;;;5022749;27;90614;-66
2021/12/12 06:33:49;;;;;;;19.57;12.80;;;-1.60;99.90;-2.00;101379.00;;;;5018045;27;88356;-66
2021/12/12 06:36:16;;;;;;;18.53;12.50;;;-1.60;99.90;-2.00;101381.00;;;;5020467;27;93708;-66
2021/12/12 06:38:46;;;;;;;17.17;11.03;;;-1.60;99.90;-2.00;101376.00;;;;5037299;27;88161;-67
2021/12/12 06:41:14;;;;;;;14.07;9.67;;;-0.80;99.90;-2.00;101376.00;;;;5036298;27;91651;-67
2021/12/12 06:43:42;;;;;;;14.10;10.37;;;-1.60;99.90;-2.00;101388.00;;;;5034432;27;98998;-67
2021/12/12 06:46:08;;;;;;;18.37;10.13;;;-1.70;99.90;-2.00;101387.00;;;;5017011;27;87827;-67
2021/12/12 06:48:36;;;;;;;15.67;10.63;;;-1.60;99.90;-2.00;101385.00;;;;5018519;27;87811;-67
2021/12/12 06:51:03;;;;;;;22.03;11.70;;;-1.60;99.90;-2.00;101382.00;;;;5034034;27;104399;-67
2021/12/12 06:53:33;;;;;;;25.53;12.77;;;-1.60;99.90;-2.00;101380.00;;;;5037949;27;101882;-66
2021/12/12 06:56:00;;;;;;;20.20;12.63;;;-1.60;99.90;-1.90;101394.00;;;;5037733;27;98787;-67
2021/12/12 06:58:30;;;;;;;22.33;13.03;;;-1.60;99.90;-1.90;101389.00;;;;5022758;27;87779;-66
2021/12/12 07:01:04;;;;;;;19.83;12.17;;;-1.60;99.90;-1.90;101379.00;;;;5015808;27;88225;-67
2021/12/12 07:03:31;;;;;;;19.53;12.43;;;-1.50;99.90;-1.90;101380.00;;;;5017275;27;99758;-66
2021/12/12 07:05:57;;;;;;;16.43;11.63;;;-1.40;99.90;-1.90;101384.00;;;;5018348;27;87722;-67
2021/12/12 07:08:25;;;;;;;16.27;10.27;;;-1.40;99.90;-1.90;101393.00;;;;5017391;27;95925;-66
2021/12/12 07:10:51;;;;;;;18.03;11.07;;;-1.50;99.90;-2.00;101401.00;;;;5015585;27;88867;-66
2021/12/12 07:13:18;;;;;;;18.60;11.37;;;-1.60;99.90;-2.10;101393.00;;;;5026743;27;110396;-67
2021/12/12 07:15:52;;;;;;;20.67;14.13;;;-1.60;99.90;-2.00;101404.00;;;;5016892;27;99701;-67
2021/12/12 07:18:23;;;;;;;21.23;12.73;;;-1.60;99.90;-2.10;101404.00;;;;5017235;27;87734;-67
2021/12/12 07:20:52;;;;;;;23.80;14.53;;;-0.60;99.90;-2.00;101404.00;;;;5020950;27;104751;-67
2021/12/12 07:23:18;;;;;;;19.10;13.63;;;-1.70;99.90;-2.00;101402.00;;;;5016424;27;89132;-67
2021/12/12 07:25:46;;;;;;;18.57;13.07;;;-1.70;99.90;-1.90;101398.00;;;;5015825;27;87833;-67
2021/12/12 07:28:13;;;;;;;21.57;12.73;;;-1.50;99.90;-1.90;101403.00;;;;5037000;27;87965;-67
2021/12/12 07:30:41;;;;;;;18.07;11.77;;;-1.50;99.90;-1.70;101404.00;;;;5035920;27;88601;-67
2021/12/12 07:33:08;;;;;;;21.27;13.03;;;-1.40;99.90;-1.60;101401.00;;;;5018511;27;100534;-67
2021/12/12 07:35:42;;;;;;;19.50;13.33;;;-1.30;99.90;-1.50;101404.00;;;;5017038;27;87767;-67
2021/12/12 07:38:12;;;;;;;20.27;12.37;;;-0.80;99.90;-1.40;101394.00;;;;5016557;27;87749;-68
2021/12/12 07:40:39;;;;;;;17.20;12.30;;;-1.10;99.90;-1.30;101399.00;;;;5016296;27;90552;-68
2021/12/12 07:43:06;;;;;;;29.03;13.77;;;-1.00;99.90;-1.30;101405.00;;;;4997870;27;90593;-67
2021/12/12 07:45:33;;;;;;;23.03;12.10;;;-0.60;99.90;-1.20;101406.00;;;;5017397;27;88025;-68
2021/12/12 07:48:00;;;;;;;21.87;12.83;;;-0.90;99.90;-1.20;101398.00;;;;5026116;27;87937;-67
2021/12/12 07:50:28;;;;;;;19.13;12.20;;;-0.80;99.90;-1.10;101397.00;;;;5028502;27;107136;-68
2021/12/12 07:52:54;;;;;;;22.43;12.80;;;-0.10;99.90;-1.10;101402.00;;;;5034887;27;88881;-68
2021/12/12 07:55:21;;;;;;;19.70;12.33;;;-0.10;99.90;-1.00;101407.00;;;;5036168;27;90544;-68
2021/12/12 07:57:48;;;;;;;24.77;12.17;;;-0.70;99.90;-0.90;101415.00;;;;5019366;27;96211;-68
2021/12/12 08:00:19;;;;;;;20.90;11.70;;;-0.60;99.90;-0.90;101406.00;;;;5015874;27;88687;-67
2021/12/12 08:02:48;;;;;;;21.27;12.23;;;-0.60;99.90;-0.80;101420.00;;;;5017762;27;88183;-67
2021/12/12 08:05:19;;;;;;;21.90;12.60;;;-0.50;99.90;-0.70;101428.00;;;;5011227;27;88880;-67
2021/12/12 08:07:45;;;;;;;21.47;12.87;;;0.60;99.90;-0.60;101435.00;;;;5021610;27;87591;-67
2021/12/12 08:10:15;;;;;;;19.13;11.27;;;-0.30;99.90;-0.60;101429.00;;;;5014968;27;88011;-67
2021/12/12 08:12:41;;;;;;;24.77;12.60;;;-0.30;99.90;-0.50;101433.00;;;;5013878;27;87871;-67
2021/12/12 08:15:11;;;;;;;18.33;11.60;;;-0.20;99.90;-0.50;101422.00;;;;5011451;27;87924;-67
2021/12/12 08:17:38;;;;;;;21.83;13.10;;;-0.20;99.90;-0.40;101423.00;;;;5018101;27;87932;-67
2021/12/12 08:20:06;;;;;;;18.93;12.20;;;-0.10;99.90;-0.40;101427.00;;;;5010584;27;89110;-68
2021/12/12 08:22:34;;;;;;;56.17;32.20;;;0.00;99.90;-0.40;101419.00;;;;5010715;27;101613;-67
2021/12/12 08:25:05;;;;;;;32.50;20.30;;;0.00;99.90;-0.30;101414.00;;;;5009997;27;113511;-67
2021/12/12 08:27:31;;;;;;;31.37;17.00;;;0.00;99.90;-0.30;101421.00;;;;5012395;27;95342;-67
2021/12/12 08:29:59;;;;;;;25.87;14.13;;;0.20;99.90;-0.30;101431.00;;;;5010517;27;118924;-67
2021/12/12 08:32:26;;;;;;;29.23;15.67;;;0.00;99.90;-0.20;101438.00;;;;5011484;27;89901;-66
2021/12/12 08:34:52;;;;;;;20.13;12.47;;;0.10;99.90;-0.20;101421.00;;;;5014181;27;88160;-66
2021/12/12 08:37:19;;;;;;;19.97;11.97;;;0.20;99.90;-0.10;101421.00;;;;5011449;27;88064;-66
2021/12/12 08:39:46;;;;;;;19.43;13.20;;;0.20;99.90;0.00;101435.00;;;;5012928;27;94611;-67
2021/12/12 08:42:14;;;;;;;22.73;11.73;;;1.00;99.90;0.00;101431.00;;;;5012882;27;88295;-66
2021/12/12 08:44:40;;;;;;;19.43;11.23;;;1.00;99.90;0.10;101425.00;;;;5010308;27;87626;-66
2021/12/12 08:47:09;;;;;;;20.30;10.63;;;0.40;99.90;0.10;101425.00;;;;5013319;27;91582;-67
2021/12/12 08:49:40;;;;;;;16.10;9.93;;;0.40;99.90;0.20;101418.00;;;;5011921;27;88968;-65
2021/12/12 08:52:14;;;;;;;17.37;11.50;;;0.60;99.90;0.20;101427.00;;;;5013219;27;87971;-66
2021/12/12 08:54:44;;;;;;;16.50;11.00;;;0.80;99.90;0.30;101424.00;;;;5012309;27;88879;-65
2021/12/12 08:57:38;;;;;;;18.07;10.93;;;0.70;99.90;0.40;101404.00;;;;5013360;27;87830;-66
2021/12/12 09:00:11;;;;;;;18.60;10.17;;;1.20;99.90;0.40;101419.00;;;;5011572;27;88045;-64
2021/12/12 09:02:37;;;;;;;18.73;10.13;;;0.70;99.90;0.50;101419.00;;;;5012270;27;87703;-64
2021/12/12 09:05:13;;;;;;;20.90;10.10;;;0.70;99.90;0.50;101427.00;;;;5010389;27;87972;-63
2021/12/12 09:07:44;;;;;;;16.23;9.13;;;0.80;99.90;0.60;101427.00;;;;5012930;27;87705;-65
2021/12/12 09:10:28;;;;;;;17.00;8.20;;;1.00;99.90;0.60;101422.00;;;;5010975;27;88916;-63
2021/12/12 09:13:06;;;;;;;11.70;8.77;;;1.00;99.90;0.70;101429.00;;;;5010656;27;87807;-64
2021/12/12 09:16:11;;;;;;;16.10;10.20;;;1.00;99.90;0.80;101426.00;;;;5013273;27;87711;-65
2021/12/12 09:18:53;;;;;;;14.77;9.40;;;1.10;99.90;0.90;101405.00;;;;5012344;27;87617;-64
2021/12/12 09:21:26;;;;;;;13.27;8.83;;;1.20;99.90;1.00;101400.00;;;;5010789;27;89085;-64
2021/12/12 09:24:05;;;;;;;15.57;9.50;;;1.20;99.90;1.00;101405.00;;;;5012003;27;88091;-65
2021/12/12 09:26:38;;;;;;;11.20;8.37;;;1.40;99.90;1.10;101413.00;;;;5011381;27;88325;-65
2021/12/12 09:29:25;;;;;;;13.97;8.30;;;1.30;99.90;1.10;101409.00;;;;5012473;27;87692;-65
2021/12/12 09:32:03;;;;;;;12.80;8.57;;;1.40;99.90;1.30;101414.00;;;;5010530;27;105430;-64
2021/12/12 09:34:41;;;;;;;15.33;9.10;;;2.30;99.90;1.50;101410.00;;;;5011150;27;87671;-64
2021/12/12 09:37:24;;;;;;;15.13;8.93;;;2.00;99.90;1.90;101410.00;;;;5010983;27;99417;-66
2021/12/12 09:40:02;;;;;;;14.70;8.50;;;2.20;99.90;2.20;101394.00;;;;5012739;27;94059;-63
2021/12/12 09:42:59;;;;;;;14.77;8.67;;;2.40;99.90;2.40;101403.00;;;;5012309;27;87977;-63
2021/12/12 09:45:58;;;;;;;13.73;8.47;;;2.60;99.90;2.60;101389.00;;;;5012326;27;87883;-65
2021/12/12 09:52:18;;;;;;;15.40;7.57;;;3.00;99.90;2.70;101374.00;;;;4977413;27;87894;-65
2021/12/12 09:55:12;;;;;;;12.73;7.53;;;3.00;99.90;2.90;101381.00;;;;5011128;27;87974;-65
2021/12/12 09:57:54;;;;;;;16.00;8.23;;;3.10;99.90;3.00;101375.00;;;;5011588;27;97522;-66
2021/12/12 10:00:48;;;;;;;12.80;7.17;;;3.20;99.90;3.00;101365.00;;;;5010499;27;87842;-65
2021/12/12 10:03:30;;;;;;;13.27;7.57;;;3.20;99.90;3.00;101358.00;;;;5004698;27;88135;-66
2021/12/12 10:06:29;;;;;;;11.47;7.03;;;3.30;99.90;3.00;101364.00;;;;5012425;27;87969;-66
2021/12/12 10:08:59;;;;;;;12.60;7.33;;;3.30;99.90;2.90;101355.00;;;;5011245;27;87383;-66
2021/12/12 10:11:43;;;;;;;11.77;6.87;;;3.20;99.90;2.80;101360.00;;;;5012030;27;87689;-65
2021/12/12 10:14:24;;;;;;;10.70;6.80;;;3.10;99.90;2.80;101351.00;;;;5012902;27;87861;-66
2021/12/12 10:17:31;;;;;;;13.93;7.60;;;3.20;99.90;2.70;101349.00;;;;5010336;27;101977;-67
2021/12/12 10:20:27;;;;;;;13.13;7.67;;;3.10;99.90;2.60;101345.00;;;;5012456;27;88124;-67
2021/12/12 10:23:17;;;;;;;11.23;7.00;;;3.00;99.90;2.60;101338.00;;;;5018480;27;87774;-65
2021/12/12 10:25:46;;;;;;;12.47;7.13;;;2.90;99.90;2.60;101342.00;;;;5012887;27;89077;-65
2021/12/12 10:28:23;;;;;;;10.03;6.70;;;2.90;99.90;2.70;101339.00;;;;5014448;27;105200;-65
2021/12/12 10:31:18;;;;;;;14.73;7.13;;;3.00;99.90;2.80;101339.00;;;;5014574;27;102525;-66
2021/12/12 10:33:53;;;;;;;13.20;7.40;;;3.10;99.90;3.00;101337.00;;;;5000414;27;88706;-66
2021/12/12 10:36:30;;;;;;;11.87;7.10;;;3.20;99.90;3.30;101338.00;;;;5013622;27;87043;-65
2021/12/12 10:39:14;;;;;;;9.53;6.30;;;3.50;99.90;3.60;101332.00;;;;5010522;27;88554;-65
2021/12/12 10:41:59;;;;;;;13.23;7.83;;;3.60;99.90;3.80;101329.00;;;;5009580;27;87677;-63
2021/12/12 10:44:37;;;;;;;12.37;7.40;;;3.80;99.90;4.00;101337.00;;;;5012215;27;88717;-64
2021/12/12 10:47:35;;;;;;;7.37;5.93;;;4.10;99.90;4.20;101338.00;;;;5009969;27;88100;-64
2021/12/12 10:50:12;;;;;;;10.93;6.47;;;4.30;99.90;4.30;101344.00;;;;5011551;27;88085;-67
2021/12/12 10:52:57;;;;;;;10.80;6.53;;;4.50;99.90;4.40;101343.00;;;;5018806;27;88244;-66
2021/12/12 10:55:41;;;;;;;11.70;6.97;;;4.60;99.90;4.50;101345.00;;;;5011617;27;96028;-63
2021/12/12 10:58:18;;;;;;;11.33;7.07;;;4.70;99.90;4.50;101340.00;;;;5025781;27;88567;-66
2021/12/12 11:00:56;;;;;;;10.90;7.13;;;4.70;99.90;4.60;101346.00;;;;5024605;27;88269;-65
2021/12/12 11:03:47;;;;;;;12.70;7.40;;;4.70;99.90;4.70;101351.00;;;;5010997;27;106010;-66
2021/12/12 11:06:23;;;;;;;13.47;7.23;;;4.80;99.90;4.80;101336.00;;;;5012159;27;93670;-67
2021/12/12 11:09:18;;;;;;;14.70;6.87;;;4.90;99.90;4.90;101335.00;;;;5011658;27;88020;-66
2021/12/12 11:11:52;;;;;;;11.90;6.90;;;5.00;99.90;5.00;101346.00;;;;5010755;27;88772;-66
2021/12/12 11:14:27;;;;;;;8.33;6.17;;;5.10;99.90;5.00;101350.00;;;;5012981;27;88197;-65
2021/12/12 11:17:04;;;;;;;9.83;6.93;;;5.30;99.90;5.00;101356.00;;;;5013429;27;88164;-66
2021/12/12 11:19:39;;;;;;;14.37;7.17;;;5.10;99.90;4.90;101352.00;;;;5013462;27;87878;-66
2021/12/12 11:22:15;;;;;;;11.23;6.83;;;5.20;99.90;4.80;101350.00;;;;5017257;27;102769;-67
2021/12/12 11:24:47;;;;;;;11.10;6.33;;;5.00;99.90;4.70;101361.00;;;;5020017;27;88112;-67
2021/12/12 11:27:22;;;;;;;9.90;6.07;;;5.10;99.90;4.70;101351.00;;;;5016815;27;87916;-67
2021/12/12 11:30:00;;;;;;;11.03;6.70;;;4.90;99.90;4.60;101355.00;;;;5012623;27;95192;-66